Time;durP1;ratioP1;P1;durP2;ratioP2;P2;SDS_P1;SDS_P2;PMS_P1;PMS_P2;Temp;Humidity;BMP_temperature;BMP_pressure;BME280_temperature;BME280_humidity;BME280_pressure;Samples;Min_cycle;Max_cycle;Signal;HPM_P1;HPM_P2
2021/09/13 00:03:36;;;;;;;45.20;41.87;;;;;;;17.34;100.00;101931.83;1940856;74;31156;-71
2021/09/13 00:09:20;;;;;;;45.03;41.60;;;;;;;17.25;100.00;101940.11;2007849;71;30949;-72
2021/09/13 00:14:45;;;;;;;43.73;40.57;;;;;;;17.10;100.00;101948.77;1941023;74;33495;-71
2021/09/13 00:20:10;;;;;;;45.07;41.57;;;;;;;17.06;100.00;101949.11;1940804;74;31048;-70
2021/09/13 00:25:35;;;;;;;46.57;43.07;;;;;;;17.09;100.00;101950.46;1940782;74;31164;-70
2021/09/13 00:31:00;;;;;;;44.50;41.00;;;;;;;17.05;100.00;101951.64;1940880;74;31056;-71
2021/09/13 00:36:30;;;;;;;45.60;42.10;;;;;;;17.03;100.00;101948.28;1940825;74;31176;-71
2021/09/13 00:41:54;;;;;;;44.80;41.60;;;;;;;17.07;100.00;101949.34;1940924;74;33606;-70
2021/09/13 00:47:19;;;;;;;45.57;42.43;;;;;;;16.97;100.00;101950.08;1940870;74;31063;-71
2021/09/13 00:52:47;;;;;;;46.33;42.87;;;;;;;17.03;100.00;101947.48;1940804;74;31177;-71
2021/09/13 00:58:11;;;;;;;43.23;40.03;;;;;;;17.16;100.00;101936.88;1940940;74;33571;-71
2021/09/13 01:03:36;;;;;;;42.50;39.40;;;;;;;17.07;100.00;101938.13;1940977;74;33555;-70
2021/09/13 01:09:01;;;;;;;41.17;38.40;;;;;;;17.19;100.00;101934.32;1940780;74;31047;-71
2021/09/13 01:14:35;;;;;;;41.70;38.80;;;;;;;17.21;100.00;101936.80;1940833;74;31053;-70
2021/09/13 01:19:59;;;;;;;40.63;37.63;;;;;;;17.14;100.00;101931.58;1941036;74;31519;-71
2021/09/13 01:25:24;;;;;;;38.97;36.37;;;;;;;17.10;100.00;101924.06;1940799;74;31078;-70
2021/09/13 01:30:48;;;;;;;39.37;36.77;;;;;;;17.09;100.00;101921.82;1940985;74;31666;-71
2021/09/13 01:36:32;;;;;;;40.30;37.70;;;;;;;17.05;100.00;101923.56;2009663;71;30875;-71
2021/09/13 01:41:56;;;;;;;37.00;34.53;;;;;;;17.07;100.00;101921.27;1940823;74;31088;-71
2021/09/13 01:47:22;;;;;;;37.60;35.00;;;;;;;17.03;100.00;101916.59;1940874;74;31079;-71
2021/09/13 01:52:46;;;;;;;38.67;36.17;;;;;;;16.94;100.00;101925.42;1941072;74;31597;-71
2021/09/13 01:58:11;;;;;;;37.30;34.97;;;;;;;16.99;100.00;101915.50;1940919;74;33608;-70
2021/09/13 02:03:41;;;;;;;37.37;34.87;;;;;;;16.98;100.00;101906.84;1941058;74;31588;-70
2021/09/13 02:09:06;;;;;;;37.90;35.43;;;;;;;16.87;100.00;101899.69;1941027;74;33021;-71
2021/09/13 02:14:30;;;;;;;36.97;34.50;;;;;;;16.80;100.00;101895.30;1941030;74;31091;-71
2021/09/13 02:19:55;;;;;;;37.70;35.00;;;;;;;16.95;100.00;101890.02;1940758;74;33200;-70
2021/09/13 02:25:19;;;;;;;39.30;36.70;;;;;;;16.96;100.00;101883.27;1940769;74;31024;-71
2021/09/13 02:30:44;;;;;;;37.73;35.27;;;;;;;17.05;100.00;101875.00;1941005;74;31506;-71
2021/09/13 02:36:08;;;;;;;36.87;34.40;;;;;;;17.02;100.00;101877.02;1940818;74;31040;-70
2021/09/13 02:41:35;;;;;;;37.17;34.70;;;;;;;17.12;100.00;101867.86;1940847;74;31093;-71
2021/09/13 02:47:02;;;;;;;35.90;33.40;;;;;;;17.07;100.00;101869.34;1940962;74;31082;-70
2021/09/13 02:52:27;;;;;;;35.27;32.90;;;;;;;17.04;100.00;101870.52;1940968;74;31087;-72
2021/09/13 02:57:51;;;;;;;37.90;35.50;;;;;;;17.12;100.00;101860.84;1940996;74;33445;-70
2021/09/13 03:03:15;;;;;;;36.03;33.53;;;;;;;17.16;100.00;101858.25;1940813;74;31089;-71
2021/09/13 03:08:41;;;;;;;34.27;32.07;;;;;;;17.12;100.00;101845.40;1940833;74;31484;-71
2021/09/13 03:14:05;;;;;;;34.93;32.67;;;;;;;17.16;100.00;101859.09;1940979;74;31594;-71
2021/09/13 03:19:30;;;;;;;35.43;33.03;;;;;;;17.13;100.00;101868.14;1940827;74;31081;-72
2021/09/13 03:24:54;;;;;;;35.07;32.67;;;;;;;17.07;100.00;101873.55;1940859;74;31047;-70
2021/09/13 03:30:38;;;;;;;39.20;36.50;;;;;;;17.10;100.00;101877.17;1987932;71;28416;-71
2021/09/13 03:36:03;;;;;;;36.53;34.13;;;;;;;17.07;100.00;101866.53;1940829;74;31006;-71
2021/09/13 03:41:27;;;;;;;35.40;33.20;;;;;;;17.02;100.00;101876.46;1940969;74;33061;-70
2021/09/13 03:47:11;;;;;;;36.43;34.00;;;;;;;17.04;100.00;101879.78;2009742;71;33329;-71
2021/09/13 03:52:35;;;;;;;35.93;33.63;;;;;;;17.05;100.00;101887.07;1941021;74;31154;-70
2021/09/13 03:58:01;;;;;;;35.67;33.27;;;;;;;16.99;100.00;101884.06;1940875;74;31016;-70
2021/09/13 04:03:31;;;;;;;34.53;32.43;;;;;;;16.90;100.00;101880.86;1940924;74;31005;-70
2021/09/13 04:15:11;;;;;;;35.93;33.23;;;;;;;16.74;100.00;101879.66;2009787;71;30847;-71
2021/09/13 04:20:36;;;;;;;35.73;33.13;;;;;;;16.82;100.00;101882.34;1941022;74;31613;-71
2021/09/13 04:26:00;;;;;;;34.57;32.17;;;;;;;16.70;100.00;101881.96;1940864;74;31011;-70
2021/09/13 04:31:24;;;;;;;34.93;32.60;;;;;;;16.63;100.00;101880.94;1940995;74;33575;-70
2021/09/13 04:36:49;;;;;;;35.80;33.50;;;;;;;16.56;100.00;101879.61;1940804;74;31208;-71
2021/09/13 04:42:14;;;;;;;36.13;33.60;;;;;;;16.48;100.00;101881.09;1940998;74;33490;-70
2021/09/13 04:47:38;;;;;;;35.33;32.90;;;;;;;16.45;100.00;101878.89;1940794;74;31070;-70
2021/09/13 04:53:04;;;;;;;35.03;32.73;;;;;;;16.55;100.00;101875.13;1940773;74;31644;-71
2021/09/13 04:58:29;;;;;;;35.17;32.87;;;;;;;16.52;100.00;101872.34;1940951;74;31621;-70
2021/09/13 05:03:59;;;;;;;35.90;33.40;;;;;;;16.60;100.00;101868.89;1940848;74;31017;-70
2021/09/13 05:09:23;;;;;;;35.93;33.53;;;;;;;16.59;100.00;101869.22;1941017;74;31191;-71
2021/09/13 05:14:48;;;;;;;36.53;34.07;;;;;;;16.60;100.00;101861.08;1940881;74;31016;-70
2021/09/13 05:20:14;;;;;;;37.00;34.30;;;;;;;16.47;100.00;101859.81;1940989;74;33516;-70
2021/09/13 05:25:42;;;;;;;36.80;34.40;;;;;;;16.43;100.00;101848.09;1940940;74;33480;-71
2021/09/13 05:31:06;;;;;;;36.90;34.30;;;;;;;16.33;100.00;101854.66;1940819;74;31004;-71
2021/09/13 05:36:30;;;;;;;34.50;32.10;;;;;;;16.17;100.00;101858.78;1941017;74;33625;-71
2021/09/13 05:41:55;;;;;;;36.00;33.57;;;;;;;16.27;100.00;101865.09;1941014;74;33036;-73
2021/09/13 05:47:19;;;;;;;35.67;33.37;;;;;;;16.21;100.00;101867.70;1940911;74;32998;-72
2021/09/13 05:52:44;;;;;;;34.63;32.43;;;;;;;16.22;100.00;101872.16;1940798;74;33047;-71
2021/09/13 05:58:09;;;;;;;38.53;36.03;;;;;;;16.03;100.00;101872.67;1940853;74;31011;-70
2021/09/13 06:03:33;;;;;;;37.60;34.90;;;;;;;16.19;100.00;101876.96;1941025;74;31474;-72
2021/09/13 06:08:57;;;;;;;39.63;36.93;;;;;;;16.10;100.00;101894.16;1941000;74;33525;-76
2021/09/13 06:14:22;;;;;;;37.13;34.60;;;;;;;16.25;100.00;101880.55;1940983;74;33481;-72
2021/09/13 06:19:47;;;;;;;38.70;36.10;;;;;;;16.13;100.00;101886.55;1940776;74;33055;-72
2021/09/13 06:25:13;;;;;;;38.00;35.50;;;;;;;16.27;100.00;101890.32;1940811;74;31028;-72
2021/09/13 06:30:39;;;;;;;36.93;34.13;;;;;;;16.32;100.00;101892.23;1941228;74;31107;-76
2021/09/13 06:36:04;;;;;;;38.20;35.63;;;;;;;16.25;100.00;101895.97;1940990;74;31659;-72
2021/09/13 06:41:29;;;;;;;38.30;35.90;;;;;;;16.32;100.00;101900.08;1941054;74;33154;-76
2021/09/13 06:47:03;;;;;;;39.13;36.47;;;;;;;16.25;100.00;101908.59;1940750;74;33102;-72
2021/09/13 06:52:29;;;;;;;36.10;33.80;;;;;;;16.44;100.00;101902.45;1941009;74;31622;-77
2021/09/13 06:57:53;;;;;;;38.40;35.80;;;;;;;16.40;100.00;101919.05;1940852;74;32982;-77
2021/09/13 07:03:19;;;;;;;39.50;37.00;;;;;;;16.32;100.00;101905.69;1940947;74;31070;-76
2021/09/13 07:08:44;;;;;;;38.57;35.97;;;;;;;16.60;100.00;101915.78;1940984;74;31543;-76
2021/09/13 07:14:08;;;;;;;40.63;37.87;;;;;;;16.55;100.00;101912.44;1940851;74;31058;-76
2021/09/13 07:19:33;;;;;;;38.43;35.43;;;;;;;16.71;100.00;101906.08;1940767;74;33098;-73
2021/09/13 07:24:57;;;;;;;37.30;34.90;;;;;;;16.60;100.00;101896.95;1940966;74;33592;-74
2021/09/13 07:30:21;;;;;;;38.80;35.90;;;;;;;16.65;100.00;101894.64;1941022;74;31538;-72
2021/09/13 07:35:46;;;;;;;36.70;34.03;;;;;;;16.73;100.00;101882.75;1940975;74;33527;-72
2021/09/13 07:41:11;;;;;;;38.27;35.37;;;;;;;16.76;100.00;101892.83;1941059;74;33427;-76
2021/09/13 07:46:35;;;;;;;38.23;35.63;;;;;;;16.69;100.00;101902.16;1940732;74;33032;-73
2021/09/13 07:51:59;;;;;;;39.17;36.27;;;;;;;16.81;100.00;101889.12;1940989;74;33625;-73
2021/09/13 07:57:24;;;;;;;38.53;35.93;;;;;;;16.82;100.00;101880.38;1940975;74;33488;-73
2021/09/13 08:02:50;;;;;;;38.20;35.40;;;;;;;16.93;100.00;101876.88;1940784;74;32977;-74
2021/09/13 08:08:15;;;;;;;37.77;35.23;;;;;;;17.06;100.00;101882.30;1940867;74;31021;-73
2021/09/13 08:13:40;;;;;;;37.20;34.47;;;;;;;17.36;100.00;101870.59;1940913;74;31033;-73
2021/09/13 08:19:06;;;;;;;34.83;32.53;;;;;;;17.56;100.00;101874.45;1940771;74;31025;-73
2021/09/13 08:24:30;;;;;;;35.50;33.20;;;;;;;17.70;100.00;101873.95;1941007;74;31011;-72
2021/09/13 08:29:55;;;;;;;35.93;33.33;;;;;;;17.83;100.00;101882.73;1940912;74;31587;-74
2021/09/13 08:35:19;;;;;;;36.00;33.60;;;;;;;17.88;100.00;101886.86;1940983;74;31522;-75
2021/09/13 08:40:45;;;;;;;35.80;33.23;;;;;;;18.04;100.00;101884.85;1940941;74;33421;-75
2021/09/13 08:46:16;;;;;;;35.47;33.17;;;;;;;18.09;100.00;101883.92;1940836;74;31045;-75
2021/09/13 08:51:38;;;;;;;33.93;31.73;;;;;;;18.13;100.00;101887.78;1940970;74;31490;-72
2021/09/13 08:57:05;;;;;;;33.37;31.07;;;;;;;18.31;100.00;101886.02;1940759;74;31099;-75
2021/09/13 09:02:37;;;;;;;34.03;31.80;;;;;;;18.38;100.00;101894.87;1940794;74;31083;-75
2021/09/13 09:08:03;;;;;;;33.43;31.23;;;;;;;18.32;100.00;101907.35;1940946;74;33453;-74
2021/09/13 09:13:29;;;;;;;32.13;30.13;;;;;;;18.41;100.00;101906.33;1940809;74;33151;-73
2021/09/13 09:18:54;;;;;;;30.97;28.97;;;;;;;18.50;100.00;101914.87;1940790;74;31024;-75
2021/09/13 09:24:27;;;;;;;32.00;29.80;;;;;;;18.44;100.00;101918.35;1940755;74;31238;-75
2021/09/13 09:30:12;;;;;;;32.07;29.87;;;;;;;18.59;100.00;101904.58;1940772;74;31017;-72
2021/09/13 09:35:51;;;;;;;30.73;28.93;;;;;;;18.57;100.00;101899.83;1940934;74;31638;-75
2021/09/13 09:41:30;;;;;;;31.90;29.60;;;;;;;18.51;100.00;101885.02;1940878;74;31039;-76
2021/09/13 09:47:05;;;;;;;31.67;29.57;;;;;;;18.74;100.00;101886.55;1940831;74;31115;-76
2021/09/13 09:52:42;;;;;;;31.47;29.27;;;;;;;19.03;100.00;101868.13;1940942;74;31042;-76
2021/09/13 09:58:13;;;;;;;29.63;27.83;;;;;;;19.26;100.00;101855.45;1940750;74;31024;-74
2021/09/13 10:03:39;;;;;;;30.13;28.33;;;;;;;19.33;100.00;101848.24;1940976;74;33440;-73
2021/09/13 10:09:04;;;;;;;29.73;28.03;;;;;;;19.48;100.00;101854.08;1940720;74;31020;-73
2021/09/13 10:14:31;;;;;;;30.13;28.23;;;;;;;19.35;100.00;101847.91;1940749;74;31090;-74
2021/09/13 10:20:01;;;;;;;29.83;27.80;;;;;;;19.50;100.00;101844.75;1940755;74;31125;-73
2021/09/13 10:25:32;;;;;;;30.00;28.13;;;;;;;19.61;100.00;101846.70;1940801;74;31022;-73
2021/09/13 10:31:00;;;;;;;29.63;27.77;;;;;;;19.57;100.00;101850.75;1940995;74;31471;-73
2021/09/13 10:37:24;;;;;;;29.40;27.70;;;;;;;19.81;100.00;101843.36;1940809;74;31164;-73
2021/09/13 10:42:54;;;;;;;30.40;28.40;;;;;;;19.84;100.00;101829.45;1940921;74;31200;-73
2021/09/13 10:48:24;;;;;;;29.23;27.43;;;;;;;19.95;100.00;101827.16;1941010;74;31179;-74
2021/09/13 10:53:53;;;;;;;29.77;28.07;;;;;;;19.97;100.00;101820.05;1940718;74;31099;-73
2021/09/13 10:59:45;;;;;;;30.17;28.20;;;;;;;19.96;100.00;101811.33;1940898;74;31138;-73
2021/09/13 11:05:22;;;;;;;30.40;28.50;;;;;;;20.28;100.00;101805.88;1940794;74;31022;-74
2021/09/13 11:11:20;;;;;;;29.63;27.73;;;;;;;20.42;100.00;101796.73;1940787;74;31089;-75
2021/09/13 11:16:50;;;;;;;29.00;27.30;;;;;;;20.66;100.00;101798.28;1940960;74;31486;-75
2021/09/13 11:22:16;;;;;;;28.70;26.90;;;;;;;20.55;100.00;101796.92;1940736;74;31033;-74
2021/09/13 11:27:40;;;;;;;26.97;25.23;;;;;;;20.83;100.00;101792.07;1940914;74;31012;-74
2021/09/13 11:33:06;;;;;;;27.23;25.63;;;;;;;20.73;100.00;101790.14;1940750;74;31069;-73
2021/09/13 11:39:00;;;;;;;24.83;23.53;;;;;;;20.70;100.00;101773.88;2009952;71;30942;-73
2021/09/13 11:44:24;;;;;;;24.53;23.03;;;;;;;20.77;100.00;101755.27;1940770;74;31054;-73
2021/09/13 11:49:54;;;;;;;24.27;22.90;;;;;;;20.94;100.00;101748.77;1940863;74;31065;-73
2021/09/13 11:55:19;;;;;;;22.57;21.47;;;;;;;;;;1940920;74;31090;-73
2021/09/13 11:57:53;;;;;;;22.10;20.90;;;;;;;21.18;100.00;101744.86;1904755;75;24216;-73
2021/09/13 12:03:17;;;;;;;23.32;22.22;;;;;;;21.20;100.00;101733.23;1940848;74;31533;-74
2021/09/13 12:08:42;;;;;;;26.20;24.27;;;;;;;21.30;100.00;101732.89;1940906;74;31670;-74
2021/09/13 12:14:10;;;;;;;24.57;23.15;;;;;;;21.45;100.00;101726.68;1940814;74;31061;-73
2021/09/13 12:19:38;;;;;;;24.82;23.38;;;;;;;21.34;100.00;101731.87;1940793;74;31117;-73
2021/09/13 12:25:10;;;;;;;22.80;21.65;;;;;;;21.16;100.00;101732.24;1940779;74;31191;-73
2021/09/13 12:30:39;;;;;;;23.57;22.37;;;;;;;21.15;100.00;101724.34;1940803;74;31148;-73
2021/09/13 12:36:17;;;;;;;22.90;21.70;;;;;;;21.13;100.00;101728.69;1940879;74;31581;-74
2021/09/13 12:41:45;;;;;;;23.03;21.87;;;;;;;20.75;100.00;101732.77;1940859;74;31691;-73
2021/09/13 12:47:11;;;;;;;25.30;23.80;;;;;;;20.63;100.00;101732.00;1940960;74;31528;-74
2021/09/13 12:52:48;;;;;;;23.93;22.53;;;;;;;20.47;100.00;101729.42;1940885;74;33718;-73
2021/09/13 12:58:28;;;;;;;24.57;23.20;;;;;;;20.58;100.00;101718.65;1941074;74;31137;-73
2021/09/13 13:04:01;;;;;;;21.93;20.80;;;;;;;20.69;100.00;101720.80;1940857;74;31046;-72
2021/09/13 13:09:26;;;;;;;23.03;21.90;;;;;;;20.85;100.00;101712.06;1940726;74;31058;-74
2021/09/13 13:14:52;;;;;;;20.30;19.30;;;;;;;20.87;100.00;101704.10;1940888;74;31047;-74
2021/09/13 13:20:17;;;;;;;21.00;20.10;;;;;;;20.63;100.00;101693.88;1940978;74;31124;-74
2021/09/13 13:25:45;;;;;;;22.83;21.60;;;;;;;20.43;100.00;101684.09;1940802;74;31106;-73
2021/09/13 13:31:10;;;;;;;22.80;21.30;;;;;;;20.55;100.00;101675.53;1940768;74;31056;-75
2021/09/13 13:36:35;;;;;;;21.27;20.13;;;;;;;20.72;100.00;101674.11;1941083;74;31641;-73
2021/09/13 13:42:00;;;;;;;23.87;22.47;;;;;;;21.08;100.00;101667.50;1941003;74;31606;-73
2021/09/13 13:47:27;;;;;;;21.05;20.05;;;;;;;21.48;100.00;101658.14;1941115;74;31621;-73
2021/09/13 13:52:51;;;;;;;20.65;19.32;;;;;;;21.41;100.00;101655.02;1941030;74;31677;-73
2021/09/13 13:58:18;;;;;;;19.70;18.70;;;;;;;21.44;100.00;101650.68;1940795;74;31057;-73
2021/09/13 14:03:42;;;;;;;19.25;18.23;;;;;;;21.49;100.00;101647.67;1940811;74;31149;-73
2021/09/13 14:09:07;;;;;;;20.35;19.20;;;;;;;21.65;100.00;101648.16;1940803;74;31101;-73
2021/09/13 14:14:31;;;;;;;19.27;18.33;;;;;;;21.55;100.00;101640.09;1941011;74;31064;-73
2021/09/13 14:19:55;;;;;;;19.17;18.10;;;;;;;21.65;100.00;101635.44;1940945;74;31622;-74
2021/09/13 14:25:20;;;;;;;19.45;18.55;;;;;;;21.64;100.00;101633.80;1940845;74;31078;-74
2021/09/13 14:30:44;;;;;;;19.52;18.73;;;;;;;21.68;100.00;101631.12;1940835;74;31043;-74
2021/09/13 14:36:08;;;;;;;20.50;19.57;;;;;;;21.47;100.00;101613.27;1940785;74;31058;-74
2021/09/13 14:41:33;;;;;;;19.75;18.85;;;;;;;21.43;100.00;101603.81;1940944;74;31615;-74
2021/09/13 14:46:57;;;;;;;20.27;19.25;;;;;;;21.58;100.00;101614.53;1940854;74;31110;-73
2021/09/13 14:49:27;;;;;;;19.90;19.00;;;;;;;;;;1905014;75;24710;-74
2021/09/13 14:54:51;;;;;;;20.63;19.53;;;;;;;21.07;100.00;101601.44;1940843;74;31153;-73
2021/09/13 15:00:17;;;;;;;20.57;19.57;;;;;;;21.07;100.00;101605.67;1940979;74;31590;-73
2021/09/13 15:05:42;;;;;;;21.63;20.50;;;;;;;20.92;100.00;101597.77;1940848;74;31074;-73
2021/09/13 15:11:07;;;;;;;20.70;19.60;;;;;;;20.89;100.00;101581.72;1940902;74;31114;-76
2021/09/13 15:16:38;;;;;;;20.73;19.63;;;;;;;20.81;100.00;101586.81;1940745;74;31045;-72
2021/09/13 15:22:02;;;;;;;20.95;19.77;;;;;;;20.89;100.00;101580.89;1940799;74;31122;-75
2021/09/13 15:27:27;;;;;;;20.47;19.30;;;;;;;20.84;100.00;101593.77;1940689;74;33635;-72
2021/09/13 15:32:51;;;;;;;20.33;19.10;;;;;;;20.82;100.00;101591.30;1940989;74;31596;-72
2021/09/13 15:38:16;;;;;;;20.77;19.77;;;;;;;21.03;100.00;101589.98;1940968;74;31181;-73
2021/09/13 15:44:01;;;;;;;21.57;20.30;;;;;;;21.07;100.00;101589.55;2009667;71;31068;-74
2021/09/13 15:49:32;;;;;;;21.82;20.72;;;;;;;21.05;100.00;101591.88;1940947;74;31546;-73
2021/09/13 15:54:56;;;;;;;21.33;20.33;;;;;;;20.76;100.00;101595.46;1940960;74;31139;-73
2021/09/13 16:00:25;;;;;;;23.30;21.90;;;;;;;20.62;100.00;101597.67;1940874;74;31072;-71
2021/09/13 16:05:50;;;;;;;23.93;22.53;;;;;;;20.51;100.00;101599.74;1940802;74;31051;-71
2021/09/13 16:11:20;;;;;;;23.60;22.30;;;;;;;20.53;100.00;101591.78;1940817;74;31161;-73
2021/09/13 16:16:45;;;;;;;22.37;21.07;;;;;;;20.56;100.00;101596.75;1940754;74;31200;-71
2021/09/13 16:22:10;;;;;;;24.60;23.10;;;;;;;20.50;100.00;101588.20;1940777;74;31070;-70
2021/09/13 16:27:35;;;;;;;23.57;22.27;;;;;;;20.42;100.00;101583.66;1940989;74;31701;-71
2021/09/13 16:33:01;;;;;;;24.77;23.47;;;;;;;20.35;100.00;101581.92;1940747;74;31188;-76
2021/09/13 16:38:30;;;;;;;24.33;22.97;;;;;;;20.40;100.00;101578.11;1940823;74;31073;-70
2021/09/13 16:43:57;;;;;;;25.57;23.93;;;;;;;20.30;100.00;101579.84;1940869;74;31096;-71
2021/09/13 16:49:21;;;;;;;25.93;24.13;;;;;;;20.17;100.00;101581.65;1940727;74;31087;-71
2021/09/13 16:55:07;;;;;;;25.63;24.23;;;;;;;20.16;100.00;101580.56;2016582;71;30910;-74
2021/09/13 17:00:35;;;;;;;25.30;23.90;;;;;;;20.12;100.00;101561.23;1940938;74;31177;-73
2021/09/13 17:06:06;;;;;;;26.90;25.03;;;;;;;20.00;100.00;101564.72;1940942;74;31136;-68
2021/09/13 17:11:31;;;;;;;25.57;24.23;;;;;;;20.03;100.00;101563.22;1940917;74;31156;-76
2021/09/13 17:16:56;;;;;;;26.30;24.70;;;;;;;19.98;100.00;101562.22;1940915;74;31045;-68
2021/09/13 17:22:20;;;;;;;25.70;24.23;;;;;;;19.86;100.00;101561.22;1940844;74;31126;-76
2021/09/13 17:27:45;;;;;;;24.03;22.63;;;;;;;19.93;100.00;101551.13;1940860;74;31049;-65
2021/09/13 17:33:12;;;;;;;23.60;22.50;;;;;;;19.74;100.00;101548.36;1940898;74;31038;-75
2021/09/13 17:38:36;;;;;;;25.50;24.30;;;;;;;19.43;100.00;101548.47;1941319;74;31187;-76
2021/09/13 17:44:07;;;;;;;26.67;25.17;;;;;;;19.31;100.00;101542.61;1941242;74;33449;-67
2021/09/13 17:49:32;;;;;;;26.93;25.47;;;;;;;19.23;100.00;101535.80;1940862;74;31106;-73
2021/09/13 17:54:57;;;;;;;26.90;25.43;;;;;;;19.28;100.00;101537.64;1941004;74;31023;-70
2021/09/13 18:00:41;;;;;;;27.80;26.30;;;;;;;19.17;100.00;101536.30;2005887;71;31329;-75
2021/09/13 18:06:06;;;;;;;28.43;26.83;;;;;;;19.17;100.00;101527.84;1941467;74;31544;-74
2021/09/13 18:11:30;;;;;;;29.63;27.67;;;;;;;19.14;100.00;101528.48;1941301;74;31031;-74
2021/09/13 18:16:55;;;;;;;29.80;27.97;;;;;;;18.98;100.00;101521.06;1940961;74;33435;-68
2021/09/13 18:22:19;;;;;;;31.10;29.13;;;;;;;18.89;100.00;101523.84;1940880;74;31038;-68
2021/09/13 18:27:47;;;;;;;33.13;31.10;;;;;;;18.93;100.00;101531.05;1941081;74;31478;-75
2021/09/13 18:33:13;;;;;;;31.93;30.20;;;;;;;18.90;100.00;101526.08;1940904;74;31095;-69
2021/09/13 18:38:37;;;;;;;35.10;33.00;;;;;;;18.89;100.00;101523.84;1940929;74;31056;-75
2021/09/13 18:44:02;;;;;;;34.57;32.77;;;;;;;18.79;100.00;101525.52;1940936;74;31094;-75
2021/09/13 18:49:27;;;;;;;33.37;31.40;;;;;;;18.75;100.00;101534.36;1940886;74;31004;-75
2021/09/13 18:54:51;;;;;;;33.70;31.70;;;;;;;18.79;100.00;101535.37;1941080;74;31078;-75
2021/09/13 19:00:17;;;;;;;34.73;32.63;;;;;;;18.69;100.00;101525.83;1940982;74;31110;-75
2021/09/13 19:06:01;;;;;;;33.67;31.63;;;;;;;18.82;100.00;101535.32;2014937;71;30864;-75
2021/09/13 19:11:26;;;;;;;34.27;32.37;;;;;;;18.82;100.00;101528.28;1941046;74;31076;-70
2021/09/13 19:16:50;;;;;;;35.63;33.50;;;;;;;18.55;100.00;101518.05;1941044;74;33513;-70
2021/09/13 19:22:22;;;;;;;36.40;34.10;;;;;;;18.47;100.00;101519.62;1940645;74;31090;-70
2021/09/13 19:27:52;;;;;;;35.23;33.03;;;;;;;18.54;100.00;101523.41;1941061;74;31005;-73
2021/09/13 19:33:36;;;;;;;35.43;33.13;;;;;;;18.53;100.00;101540.86;2003952;71;30799;-73
2021/09/13 19:39:01;;;;;;;35.60;33.50;;;;;;;18.30;100.00;101546.24;1940607;74;31520;-67
2021/09/13 19:44:26;;;;;;;36.80;34.50;;;;;;;18.04;100.00;101540.42;1940712;74;31002;-76
2021/09/13 19:49:50;;;;;;;37.13;34.80;;;;;;;18.08;100.00;101548.48;1940646;74;33465;-68
2021/09/13 19:55:21;;;;;;;36.70;34.20;;;;;;;18.04;100.00;101557.30;1940913;74;31545;-76
2021/09/13 20:00:46;;;;;;;36.97;34.57;;;;;;;18.00;100.00;101552.63;1941045;74;31587;-65
2021/09/13 20:06:11;;;;;;;36.33;34.13;;;;;;;17.96;100.00;101556.66;1941071;74;31067;-75
2021/09/13 20:11:35;;;;;;;38.00;35.60;;;;;;;17.93;100.00;101555.86;1940870;74;31472;-75
2021/09/13 20:17:00;;;;;;;36.67;34.43;;;;;;;17.87;100.00;101556.31;1941229;74;31155;-73
2021/09/13 20:22:25;;;;;;;35.77;33.47;;;;;;;17.92;100.00;101562.66;1941036;74;31522;-73
2021/09/13 20:27:50;;;;;;;35.70;33.50;;;;;;;18.01;100.00;101558.51;1941242;74;31061;-73
2021/09/13 20:33:15;;;;;;;36.17;33.87;;;;;;;18.15;100.00;101562.08;1941119;74;31516;-75
2021/09/13 20:38:39;;;;;;;35.37;33.03;;;;;;;18.09;100.00;101550.14;1940872;74;31005;-68
2021/09/13 20:44:05;;;;;;;34.07;31.63;;;;;;;18.10;100.00;101546.16;1940945;74;31005;-66
2021/09/13 20:49:30;;;;;;;35.20;32.90;;;;;;;18.05;100.00;101549.69;1940872;74;31098;-78
2021/09/13 20:54:55;;;;;;;35.63;33.30;;;;;;;18.04;100.00;101546.62;1940960;74;31068;-77
2021/09/13 21:00:20;;;;;;;35.10;32.90;;;;;;;18.21;100.00;101542.53;1940881;74;31151;-67
2021/09/13 21:05:45;;;;;;;35.97;33.83;;;;;;;18.15;100.00;101553.06;1906220;75;31692;-73
2021/09/13 21:11:13;;;;;;;34.90;32.70;;;;;;;18.13;100.00;101543.30;1940960;74;33519;-76
2021/09/13 21:16:44;;;;;;;36.27;33.87;;;;;;;18.01;100.00;101548.67;1941304;74;31080;-74
2021/09/13 21:22:17;;;;;;;35.13;32.60;;;;;;;17.91;100.00;101548.91;1941519;74;31005;-75
2021/09/13 21:27:42;;;;;;;36.23;33.77;;;;;;;17.88;100.00;101550.38;1941456;74;33496;-74
2021/09/13 21:33:08;;;;;;;35.40;33.10;;;;;;;17.95;100.00;101548.52;1941085;74;31094;-76
2021/09/13 21:38:32;;;;;;;35.33;33.13;;;;;;;17.87;100.00;101552.09;1941141;74;31524;-69
2021/09/13 21:43:57;;;;;;;35.00;32.70;;;;;;;17.80;100.00;101549.70;1940983;74;31013;-68
2021/09/13 21:49:22;;;;;;;36.63;33.87;;;;;;;17.68;100.00;101554.48;1941598;74;31631;-73
2021/09/13 21:54:46;;;;;;;36.23;33.77;;;;;;;17.76;100.00;101559.92;1940951;74;31011;-69
2021/09/13 22:00:13;;;;;;;35.37;33.27;;;;;;;17.77;100.00;101561.59;1940924;74;31015;-69
2021/09/13 22:05:37;;;;;;;33.83;31.60;;;;;;;17.65;100.00;101559.34;1941039;74;33432;-76
2021/09/13 22:11:01;;;;;;;35.13;32.93;;;;;;;17.66;100.00;101563.81;1940816;74;31073;-69
2021/09/13 22:16:26;;;;;;;36.10;33.73;;;;;;;17.68;100.00;101553.08;1941265;74;31127;-73
2021/09/13 22:21:50;;;;;;;37.93;35.53;;;;;;;17.69;100.00;101546.31;1941436;74;33537;-73
2021/09/13 22:27:15;;;;;;;38.33;35.93;;;;;;;17.67;100.00;101541.57;1940794;74;31025;-68
2021/09/13 22:32:59;;;;;;;38.13;35.53;;;;;;;17.54;100.00;101531.16;2011735;71;30874;-76
2021/09/13 22:38:24;;;;;;;38.37;35.77;;;;;;;17.47;100.00;101526.55;1940801;74;31089;-76
2021/09/13 22:43:48;;;;;;;37.80;35.53;;;;;;;17.37;100.00;101525.37;1940817;74;31025;-67
2021/09/13 22:49:12;;;;;;;37.73;35.23;;;;;;;17.29;100.00;101510.66;1941253;74;31022;-73
2021/09/13 22:54:36;;;;;;;38.90;36.47;;;;;;;17.34;100.00;101523.20;1941019;74;31512;-76
2021/09/13 23:00:01;;;;;;;37.63;35.23;;;;;;;17.50;100.00;101515.28;1940956;74;30991;-76
2021/09/13 23:05:26;;;;;;;37.10;34.60;;;;;;;17.46;100.00;101505.80;1940869;74;31114;-70
2021/09/13 23:10:50;;;;;;;36.50;34.07;;;;;;;17.35;100.00;101496.78;1941469;74;31515;-71
2021/09/13 23:16:20;;;;;;;36.73;34.33;;;;;;;17.36;100.00;101497.62;1941291;74;31118;-73
2021/09/13 23:21:44;;;;;;;38.53;36.03;;;;;;;17.25;100.00;101499.80;1940971;74;31545;-69
2021/09/13 23:27:09;;;;;;;38.37;35.83;;;;;;;17.34;100.00;101485.28;1941514;74;31619;-75
2021/09/13 23:32:33;;;;;;;38.97;36.37;;;;;;;17.26;100.00;101495.29;1941275;74;31610;-74
2021/09/13 23:37:58;;;;;;;44.00;41.10;;;;;;;17.17;100.00;101473.30;1925492;74;28640;-73
2021/09/13 23:43:23;;;;;;;40.73;37.90;;;;;;;17.27;100.00;101469.45;1941614;74;31594;-73
2021/09/13 23:48:47;;;;;;;39.50;36.97;;;;;;;17.25;100.00;101459.92;1941018;74;31134;-67
2021/09/13 23:54:12;;;;;;;38.93;36.43;;;;;;;17.33;100.00;101457.54;1940947;74;31023;-69
2021/09/13 23:59:36;;;;;;;40.50;37.73;;;;;;;17.35;100.00;101455.23;1941449;74;33599;-73
